Terminal Aerodrome Forecast
Issued by NWS

Home | Current Version | Previous Version | Graphics & Text | Print | Product List | Glossary On
Versions: 1 2 3 4 5 6 7 8 9 10 11 12 13 14 15
534
FTUS43 KMPX 251129
TAFRWF
TAF
KRWF 251129Z 2512/2612 28004KT P6SM SKC
     FM251600 32006KT P6SM SKC
     FM260000 19006KT P6SM FEW120=

USA.gov is the U.S. government's official web portal to all federal, state and local government web resources and services.